Time;durP1;ratioP1;P1;durP2;ratioP2;P2;SDS_P1;SDS_P2;PMS_P1;PMS_P2;Temp;Humidity;BMP_temperature;BMP_pressure;BME280_temperature;BME280_humidity;BME280_pressure;Samples;Min_cycle;Max_cycle;Signal;HPM_P1;HPM_P2
2021/12/30 00:00:47;;;;;;;4.05;2.30;;;;;;;6.05;78.19;92729.91;2071304;69;20579;-70
2021/12/30 00:03:13;;;;;;;1.80;1.60;;;;;;;6.21;78.30;92742.31;2071578;69;20248;-74
2021/12/30 00:05:39;;;;;;;3.35;1.40;;;;;;;6.35;76.04;92731.47;2074194;69;20152;-73
2021/12/30 00:08:05;;;;;;;1.70;1.50;;;;;;;6.17;77.71;92719.63;2074680;69;20183;-70
2021/12/30 00:10:31;;;;;;;1.90;1.70;;;;;;;6.27;77.40;92709.22;2074496;69;20522;-73
2021/12/30 00:12:57;;;;;;;2.22;1.60;;;;;;;6.36;77.35;92711.31;2071240;69;20290;-70
2021/12/30 00:15:23;;;;;;;2.00;1.30;;;;;;;6.26;78.01;92721.00;2074684;69;20127;-71
2021/12/30 00:17:49;;;;;;;2.33;1.25;;;;;;;6.43;75.81;92715.31;2074489;69;20157;-72
2021/12/30 00:20:15;;;;;;;1.60;1.20;;;;;;;6.40;76.98;92718.53;2074453;69;20247;-71
2021/12/30 00:22:42;;;;;;;1.98;1.70;;;;;;;6.07;78.27;92741.22;2074457;69;20163;-72
2021/12/30 00:25:10;;;;;;;1.90;1.40;;;;;;;5.94;80.32;92745.13;2074668;69;20159;-71
2021/12/30 00:27:36;;;;;;;1.77;1.50;;;;;;;6.14;78.88;92753.59;2074196;69;20152;-72
2021/12/30 00:30:04;;;;;;;3.45;1.80;;;;;;;6.32;77.96;92755.00;2074007;69;20159;-73
2021/12/30 00:32:30;;;;;;;2.30;1.95;;;;;;;6.38;77.78;92768.75;2074777;69;20178;-73
2021/12/30 00:34:56;;;;;;;4.07;2.00;;;;;;;6.42;77.04;92766.25;2074649;69;20152;-73
2021/12/30 00:37:21;;;;;;;2.65;2.05;;;;;;;6.19;78.83;92766.59;2074801;69;20164;-73
2021/12/30 00:39:47;;;;;;;3.30;2.10;;;;;;;6.34;78.20;92763.56;2071348;69;20154;-71
2021/12/30 00:42:14;;;;;;;2.47;1.60;;;;;;;6.36;76.48;92764.44;2074697;69;20140;-71
2021/12/30 00:44:39;;;;;;;3.45;1.70;;;;;;;6.34;77.79;92769.91;2074358;69;20159;-77
2021/12/30 00:47:05;;;;;;;3.65;2.10;;;;;;;6.39;78.12;92789.78;2074516;69;20647;-74
2021/12/30 00:49:31;;;;;;;5.40;1.90;;;;;;;6.35;77.60;92790.19;2074235;69;20152;-71
2021/12/30 00:51:57;;;;;;;8.35;3.00;;;;;;;6.34;77.00;92778.28;2074692;69;20159;-75
2021/12/30 00:54:23;;;;;;;3.08;2.28;;;;;;;6.37;77.41;92787.56;2074473;69;20146;-72
2021/12/30 00:56:49;;;;;;;2.22;2.03;;;;;;;6.38;76.45;92789.03;2074690;69;20231;-72
2021/12/30 00:59:15;;;;;;;5.75;2.08;;;;;;;6.24;76.83;92780.31;2074537;69;20175;-72
2021/12/30 01:01:41;;;;;;;2.88;2.20;;;;;;;6.40;76.06;92780.06;2074785;69;20148;-74
2021/12/30 01:04:07;;;;;;;3.03;2.47;;;;;;;6.42;76.28;92763.47;2074460;69;20170;-73
2021/12/30 01:06:33;;;;;;;4.50;2.60;;;;;;;6.41;75.22;92747.97;2074462;69;20144;-75
2021/12/30 01:08:59;;;;;;;2.20;2.00;;;;;;;6.46;76.04;92749.75;2074427;69;20140;-73
2021/12/30 01:11:26;;;;;;;3.25;2.10;;;;;;;6.32;77.32;92766.94;2074320;69;20147;-74
2021/12/30 01:14:18;;;;;;;5.95;2.70;;;;;;;6.16;78.23;92776.13;2070957;69;20143;-71
2021/12/30 01:16:42;;;;;;;3.95;2.72;;;;;;;6.43;75.63;92785.25;2074274;69;20234;-70
2021/12/30 01:19:54;;;;;;;3.53;2.60;;;;;;;6.45;75.83;92788.19;2074762;69;20156;-76
2021/12/30 01:21:55;;;;;;;4.82;2.80;;;;;;;6.51;76.59;92787.94;2072376;69;20152;-70
2021/12/30 01:24:22;;;;;;;2.75;2.30;;;;;;;6.30;77.67;92777.97;2074449;69;20171;-71
2021/12/30 01:26:48;;;;;;;2.92;2.58;;;;;;;6.24;78.12;92787.94;2071162;69;20559;-72
2021/12/30 01:29:14;;;;;;;5.18;2.35;;;;;;;6.48;76.85;92783.50;2071006;69;20136;-71
2021/12/30 01:31:40;;;;;;;2.60;2.08;;;;;;;6.49;77.35;92787.75;2074449;69;20236;-71
2021/12/30 01:34:06;;;;;;;3.92;2.58;;;;;;;6.11;78.81;92789.06;2070936;69;20156;-71
2021/12/30 01:36:31;;;;;;;4.93;2.83;;;;;;;6.28;78.38;92794.59;2074623;69;20160;-73
2021/12/30 01:38:57;;;;;;;4.70;2.70;;;;;;;6.39;78.05;92800.97;2074451;69;20140;-72
2021/12/30 01:41:23;;;;;;;5.82;3.05;;;;;;;6.29;78.33;92810.03;2074380;69;20650;-73
2021/12/30 01:43:49;;;;;;;5.80;2.97;;;;;;;6.24;78.67;92785.91;2074424;69;20140;-78
2021/12/30 01:46:15;;;;;;;3.60;2.58;;;;;;;6.10;79.10;92804.34;2074757;69;20208;-75
2021/12/30 01:48:42;;;;;;;4.20;2.80;;;;;;;6.23;79.25;92814.41;2074392;69;20193;-76
2021/12/30 01:51:08;;;;;;;3.30;2.55;;;;;;;6.35;77.92;92821.69;2074581;69;20143;-77
2021/12/30 01:53:35;;;;;;;2.72;2.28;;;;;;;6.15;78.53;92820.13;2074542;69;20251;-72
2021/12/30 01:56:01;;;;;;;3.90;2.70;;;;;;;6.34;78.21;92834.19;2074060;69;20168;-79
2021/12/30 01:58:27;;;;;;;3.10;2.67;;;;;;;6.52;76.68;92834.16;2070656;69;20678;-75
2021/12/30 02:00:53;;;;;;;4.28;2.50;;;;;;;6.46;77.71;92826.03;2074130;69;20159;-79
2021/12/30 02:03:19;;;;;;;3.40;2.40;;;;;;;6.28;78.10;92808.56;2071387;69;20585;-79
2021/12/30 02:05:45;;;;;;;2.55;2.15;;;;;;;6.48;77.29;92800.28;2074494;69;20247;-80
2021/12/30 02:08:15;;;;;;;3.30;2.17;;;;;;;6.44;78.51;92808.34;2074145;69;20156;-73
2021/12/30 02:10:43;;;;;;;3.28;2.20;;;;;;;6.31;78.37;92821.38;2070910;69;20557;-74
2021/12/30 02:13:09;;;;;;;2.90;2.17;;;;;;;6.39;78.42;92835.25;2074489;69;20191;-71
2021/12/30 02:15:35;;;;;;;3.40;2.40;;;;;;;6.37;78.35;92843.50;2074204;69;20148;-72
2021/12/30 02:18:02;;;;;;;3.88;2.40;;;;;;;6.57;77.64;92864.66;2074093;69;20525;-75
2021/12/30 02:20:44;;;;;;;2.72;2.28;;;;;;;6.61;76.29;92876.16;2074562;69;20139;-71
2021/12/30 02:23:11;;;;;;;3.50;2.30;;;;;;;6.68;76.37;92891.34;2075043;69;20219;-71
2021/12/30 02:25:37;;;;;;;3.28;2.50;;;;;;;6.43;77.76;92877.53;2075360;69;20235;-71
2021/12/30 02:28:11;;;;;;;5.47;3.20;;;;;;;6.33;79.35;92882.31;2075242;69;20147;-72
2021/12/30 02:30:38;;;;;;;3.80;2.85;;;;;;;6.56;77.77;92873.63;2074748;69;20191;-70
2021/12/30 02:33:04;;;;;;;3.60;2.53;;;;;;;6.48;78.87;92842.97;2068680;69;20160;-70
2021/12/30 02:35:31;;;;;;;3.42;2.47;;;;;;;6.51;78.16;92835.47;2074528;69;20184;-71
2021/12/30 02:37:57;;;;;;;2.63;2.30;;;;;;;6.66;77.14;92824.06;2074806;69;20221;-72
2021/12/30 02:40:28;;;;;;;2.50;1.90;;;;;;;6.46;79.23;92819.69;2074803;69;20602;-71
2021/12/30 02:42:54;;;;;;;3.13;2.08;;;;;;;6.47;79.52;92841.50;2074459;69;20152;-76
2021/12/30 02:45:20;;;;;;;2.22;1.92;;;;;;;6.48;80.27;92845.03;2074171;69;20719;-76
2021/12/30 02:47:46;;;;;;;2.35;2.10;;;;;;;6.50;79.18;92868.28;2071278;69;20152;-73
2021/12/30 02:50:12;;;;;;;3.75;2.88;;;;;;;6.30;80.51;92880.69;2073985;69;20194;-73
2021/12/30 02:52:38;;;;;;;4.53;2.95;;;;;;;6.22;80.90;92866.78;2074404;69;20223;-70
2021/12/30 02:55:04;;;;;;;3.20;2.80;;;;;;;6.40;80.59;92847.19;2074157;69;20195;-73
2021/12/30 02:57:30;;;;;;;3.55;2.45;;;;;;;6.61;79.39;92850.97;2074129;69;20187;-72
2021/12/30 02:59:56;;;;;;;3.45;2.50;;;;;;;6.65;79.43;92835.84;2074657;69;20937;-74
2021/12/30 03:02:21;;;;;;;2.95;2.42;;;;;;;6.79;78.99;92845.31;2073993;69;20179;-70
2021/12/30 03:04:47;;;;;;;2.75;2.10;;;;;;;6.74;79.03;92860.31;2074227;69;20243;-69
2021/12/30 03:07:17;;;;;;;3.42;2.17;;;;;;;6.76;79.31;92880.06;2074134;69;20148;-69
2021/12/30 03:09:46;;;;;;;3.47;2.10;;;;;;;6.77;79.72;92882.25;2074678;69;20159;-70
2021/12/30 03:12:12;;;;;;;2.03;1.70;;;;;;;6.81;80.96;92901.41;2074781;69;20255;-72
2021/12/30 03:14:41;;;;;;;3.75;2.75;;;;;;;6.69;79.96;92912.44;2074890;69;20220;-78
2021/12/30 03:17:07;;;;;;;4.28;3.33;;;;;;;6.70;79.98;92905.50;2074651;69;20626;-69
2021/12/30 03:19:33;;;;;;;2.33;2.10;;;;;;;6.81;78.41;92895.81;2074176;69;20669;-70
2021/12/30 03:21:59;;;;;;;3.13;2.30;;;;;;;6.38;82.51;92889.72;2074617;69;20140;-70
2021/12/30 03:24:25;;;;;;;4.30;2.17;;;;;;;6.49;82.64;92883.59;2074847;69;20178;-69
2021/12/30 03:26:51;;;;;;;3.08;2.40;;;;;;;6.78;81.18;92894.19;2074652;69;20184;-70
2021/12/30 03:29:20;;;;;;;3.70;2.38;;;;;;;6.96;79.73;92898.38;2074188;69;20166;-70
2021/12/30 03:31:46;;;;;;;1.77;1.42;;;;;;;6.96;78.99;92901.19;2074815;69;20162;-74
2021/12/30 03:34:12;;;;;;;4.05;1.98;;;;;;;6.99;79.78;92910.50;2074730;69;20148;-76
2021/12/30 03:36:37;;;;;;;3.63;2.00;;;;;;;6.87;79.64;92916.63;2074297;69;20144;-71
2021/12/30 03:39:04;;;;;;;2.42;1.75;;;;;;;6.80;79.73;92917.47;2074100;69;20163;-74
2021/12/30 03:41:31;;;;;;;2.63;1.70;;;;;;;6.91;80.60;92935.06;2073869;69;20144;-71
2021/12/30 03:44:00;;;;;;;2.28;1.63;;;;;;;6.80;80.30;92936.31;2073941;69;20140;-75
2021/12/30 03:46:26;;;;;;;1.73;1.50;;;;;;;6.93;80.39;92935.97;2073695;69;20526;-80
2021/12/30 03:48:52;;;;;;;2.30;1.70;;;;;;;6.90;81.16;92945.50;2074419;69;20152;-80
2021/12/30 03:51:22;;;;;;;2.60;1.92;;;;;;;7.07;80.36;92959.44;2074783;69;20601;-83
2021/12/30 03:53:51;;;;;;;3.25;2.03;;;;;;;7.02;79.98;92965.31;2075281;69;20154;-70
2021/12/30 03:56:20;;;;;;;2.17;1.98;;;;;;;6.97;80.54;92958.66;2075249;69;20146;-80
2021/12/30 03:58:47;;;;;;;3.55;2.00;;;;;;;6.82;80.82;92962.41;2075099;69;20163;-74
2021/12/30 04:01:15;;;;;;;3.67;1.98;;;;;;;6.96;80.28;92973.22;2074656;69;20139;-70
2021/12/30 04:03:41;;;;;;;2.03;1.83;;;;;;;6.86;80.33;92971.13;2074535;69;20260;-75
2021/12/30 04:06:07;;;;;;;3.30;2.05;;;;;;;6.87;80.34;92958.63;2074564;69;20155;-70
2021/12/30 04:08:34;;;;;;;2.70;2.15;;;;;;;6.75;82.06;92977.25;2074530;69;20155;-73
2021/12/30 04:11:00;;;;;;;2.47;2.05;;;;;;;6.94;80.83;92973.09;2071306;69;20136;-71
2021/12/30 04:13:26;;;;;;;3.35;1.70;;;;;;;6.94;80.06;92973.09;2074699;69;20610;-70
2021/12/30 04:15:52;;;;;;;2.38;1.88;;;;;;;6.93;80.80;92986.34;2074653;69;20232;-75
2021/12/30 04:18:18;;;;;;;1.70;1.50;;;;;;;6.97;80.58;92975.47;2074624;69;20155;-70
2021/12/30 04:20:44;;;;;;;4.18;1.60;;;;;;;6.82;81.31;92979.19;2074947;69;20143;-71
2021/12/30 04:23:10;;;;;;;1.92;1.50;;;;;;;6.92;82.05;92986.91;2074453;69;20152;-70
2021/12/30 04:25:35;;;;;;;3.00;1.63;;;;;;;7.02;79.82;92994.06;2071336;69;20201;-82
2021/12/30 04:28:01;;;;;;;2.33;1.50;;;;;;;6.91;80.99;92988.97;2075095;69;20136;-73
2021/12/30 04:30:27;;;;;;;2.22;1.58;;;;;;;6.87;81.37;92997.81;2075316;69;20144;-78
2021/12/30 04:32:52;;;;;;;2.22;1.70;;;;;;;6.90;81.57;93011.94;2075124;69;20143;-73
2021/12/30 04:35:19;;;;;;;1.95;1.50;;;;;;;6.87;81.43;93014.59;2075102;69;20683;-73
2021/12/30 04:37:45;;;;;;;3.33;1.85;;;;;;;6.79;81.94;93032.78;2075222;69;20184;-75
2021/12/30 04:40:12;;;;;;;4.00;1.80;;;;;;;7.04;80.36;93024.25;2075153;69;20325;-80
2021/12/30 04:42:39;;;;;;;2.15;1.40;;;;;;;6.98;81.66;93032.91;2075151;69;20148;-78
2021/12/30 04:45:05;;;;;;;2.45;1.70;;;;;;;7.01;79.79;93033.81;2075232;69;20143;-76
2021/12/30 04:47:31;;;;;;;2.17;1.65;;;;;;;6.80;81.20;93043.41;2071831;69;20590;-75
2021/12/30 04:49:58;;;;;;;3.55;2.10;;;;;;;6.82;81.91;93037.22;2075116;69;20143;-76
2021/12/30 04:52:25;;;;;;;2.72;2.20;;;;;;;6.92;81.56;93034.47;2075225;69;20140;-80
2021/12/30 04:54:50;;;;;;;2.78;2.22;;;;;;;7.08;80.08;93052.56;2075201;69;20599;-75
2021/12/30 04:57:17;;;;;;;3.25;1.80;;;;;;;6.97;80.62;93061.50;2075204;69;20223;-75
2021/12/30 04:59:42;;;;;;;2.10;1.90;;;;;;;6.90;80.76;93060.25;2071693;69;20530;-75
2021/12/30 05:02:08;;;;;;;2.25;1.90;;;;;;;6.77;81.72;93069.00;2075234;69;20148;-77
2021/12/30 05:04:34;;;;;;;2.00;1.70;;;;;;;6.89;81.06;93075.56;2071608;69;20155;-72
2021/12/30 05:06:59;;;;;;;3.30;2.28;;;;;;;6.81;82.11;93074.91;2075301;69;20151;-79
2021/12/30 05:09:25;;;;;;;2.58;2.00;;;;;;;7.03;79.92;93073.16;2075057;69;20544;-79
2021/12/30 05:11:51;;;;;;;5.13;2.10;;;;;;;6.82;81.04;93082.00;2075248;69;20164;-81
2021/12/30 05:14:17;;;;;;;4.13;3.10;;;;;;;6.78;82.28;93074.03;2075239;69;20164;-76
2021/12/30 05:16:44;;;;;;;10.02;6.63;;;;;;;6.96;81.43;93079.59;2071810;69;20143;-82
2021/12/30 05:19:09;;;;;;;3.53;2.17;;;;;;;6.94;81.38;93087.84;2075244;69;20158;-71
2021/12/30 05:21:35;;;;;;;1.92;1.13;;;;;;;6.86;81.66;93080.25;2074998;69;20595;-70
2021/12/30 05:24:01;;;;;;;3.13;2.08;;;;;;;6.98;81.82;93088.16;2075194;69;20247;-75
2021/12/30 05:26:28;;;;;;;2.38;1.67;;;;;;;7.13;80.70;93094.31;2075166;69;20140;-72
2021/12/30 05:28:58;;;;;;;2.78;2.03;;;;;;;6.80;81.96;93102.16;2075031;69;20168;-76
2021/12/30 05:31:24;;;;;;;3.47;2.50;;;;;;;6.87;81.47;93101.34;2075127;69;20522;-76
2021/12/30 05:33:50;;;;;;;3.40;1.50;;;;;;;6.96;81.64;93093.59;2075057;69;20175;-76
2021/12/30 05:36:16;;;;;;;3.10;2.53;;;;;;;6.72;82.70;93095.16;2074982;69;20143;-76
2021/12/30 05:38:42;;;;;;;2.42;2.00;;;;;;;6.87;82.80;93089.38;2071727;69;20158;-75
2021/12/30 05:41:08;;;;;;;1.90;1.50;;;;;;;6.99;81.64;93076.38;2075161;69;20188;-74
2021/12/30 05:43:33;;;;;;;2.33;2.05;;;;;;;6.88;82.06;93077.63;2075036;69;20163;-73
2021/12/30 05:45:59;;;;;;;2.53;1.90;;;;;;;7.00;81.98;93083.44;2075018;69;20144;-80
2021/12/30 05:48:25;;;;;;;1.98;1.52;;;;;;;7.20;80.95;93101.13;2071669;69;20602;-73
2021/12/30 05:50:51;;;;;;;2.28;1.95;;;;;;;7.12;81.90;93109.63;2074944;69;20231;-76
2021/12/30 05:53:17;;;;;;;4.25;1.60;;;;;;;7.23;80.99;93122.38;2075069;69;20144;-75
2021/12/30 05:55:42;;;;;;;1.98;1.50;;;;;;;6.93;82.67;93109.50;2074972;69;20156;-76
2021/12/30 05:58:08;;;;;;;3.47;2.20;;;;;;;6.88;83.94;93102.81;2075141;69;20239;-75
2021/12/30 06:00:34;;;;;;;3.10;1.60;;;;;;;7.14;82.36;93100.63;2075227;69;20148;-74
2021/12/30 06:02:59;;;;;;;1.67;1.35;;;;;;;7.16;82.74;93106.41;2074892;69;20170;-77
2021/12/30 06:05:25;;;;;;;4.53;2.35;;;;;;;7.04;82.55;93108.25;2074969;69;20223;-72
2021/12/30 06:07:51;;;;;;;2.65;1.83;;;;;;;7.25;81.01;93122.53;2075008;69;20640;-75
2021/12/30 06:10:17;;;;;;;3.55;2.00;;;;;;;7.26;81.64;93134.47;2071576;69;20547;-77
2021/12/30 06:12:44;;;;;;;2.22;1.65;;;;;;;7.26;80.74;93134.47;2074978;69;20178;-78
2021/12/30 06:15:11;;;;;;;3.45;1.33;;;;;;;7.27;81.20;93136.69;2075006;69;20148;-78
2021/12/30 06:17:37;;;;;;;1.50;1.40;;;;;;;7.34;82.00;93141.47;2075027;69;20144;-77
2021/12/30 06:20:06;;;;;;;7.63;3.97;;;;;;;7.22;82.27;93143.28;2074783;69;20267;-71
2021/12/30 06:22:31;;;;;;;4.32;2.50;;;;;;;7.20;82.00;93148.00;2071638;69;20152;-71
2021/12/30 06:24:57;;;;;;;2.42;1.98;;;;;;;7.26;81.45;93135.22;2074952;69;20522;-72
2021/12/30 06:27:22;;;;;;;4.97;2.10;;;;;;;7.14;82.14;93145.44;2075064;69;20144;-75
2021/12/30 06:29:48;;;;;;;2.90;2.20;;;;;;;7.30;82.19;93132.75;2071654;69;20143;-74
2021/12/30 06:32:14;;;;;;;3.92;2.20;;;;;;;7.19;82.00;93118.50;2074898;69;20178;-73
2021/12/30 06:34:39;;;;;;;2.72;1.98;;;;;;;7.16;82.00;93117.63;2074792;69;20175;-73
2021/12/30 06:37:05;;;;;;;2.50;1.83;;;;;;;7.29;82.67;93111.66;2075074;69;20151;-75
2021/12/30 06:39:30;;;;;;;6.38;2.00;;;;;;;7.48;81.33;93115.91;2074919;69;20167;-74
2021/12/30 06:41:56;;;;;;;2.40;1.88;;;;;;;7.35;81.86;93122.59;2074936;69;20140;-74
2021/12/30 06:44:21;;;;;;;2.00;1.50;;;;;;;7.37;81.88;93117.16;2074897;69;20144;-74
2021/12/30 06:46:55;;;;;;;2.20;1.50;;;;;;;7.40;82.04;93132.81;2075148;69;20154;-74
2021/12/30 06:49:20;;;;;;;2.13;1.10;;;;;;;7.59;81.05;93126.56;2074749;69;20163;-80
2021/12/30 06:51:46;;;;;;;2.47;1.10;;;;;;;7.47;82.37;93137.56;2074811;69;20159;-76
2021/12/30 06:54:12;;;;;;;2.63;1.30;;;;;;;7.55;81.41;93140.25;2074855;69;20136;-73
2021/12/30 06:56:38;;;;;;;1.90;1.40;;;;;;;7.41;83.05;93141.94;2074764;69;20191;-72
2021/12/30 06:59:04;;;;;;;3.72;2.58;;;;;;;7.22;84.24;93159.34;2074804;69;20281;-75
2021/12/30 07:01:30;;;;;;;6.13;3.10;;;;;;;7.35;84.01;93153.41;2074865;69;20148;-78
2021/12/30 07:03:56;;;;;;;7.88;5.13;;;;;;;7.32;84.20;93165.75;2074879;69;20160;-76
2021/12/30 07:06:22;;;;;;;24.63;11.60;;;;;;;7.38;83.40;93157.88;2074919;69;20147;-74
2021/12/30 07:08:47;;;;;;;7.18;4.00;;;;;;;7.63;82.49;93161.25;2075387;69;20232;-72
2021/12/30 07:11:13;;;;;;;3.50;2.30;;;;;;;7.53;82.89;93170.94;2075337;69;20587;-72
2021/12/30 07:13:38;;;;;;;3.70;2.65;;;;;;;7.41;83.18;93165.09;2071983;69;20128;-71
2021/12/30 07:16:04;;;;;;;3.50;2.42;;;;;;;7.62;82.16;93179.38;2071954;69;20585;-72
2021/12/30 07:18:30;;;;;;;2.03;1.75;;;;;;;7.66;82.30;93187.38;2075458;69;20136;-71
2021/12/30 07:20:56;;;;;;;2.25;1.52;;;;;;;7.79;81.03;93184.22;2075225;69;20175;-72
2021/12/30 07:23:21;;;;;;;4.05;2.22;;;;;;;7.75;81.69;93189.50;2075286;69;20142;-71
2021/12/30 07:25:47;;;;;;;3.22;1.95;;;;;;;7.82;81.30;93194.25;2075446;69;20574;-70
2021/12/30 07:28:12;;;;;;;3.53;2.40;;;;;;;7.77;81.34;93198.06;2075350;69;20241;-71
2021/12/30 07:30:38;;;;;;;2.90;1.92;;;;;;;7.85;81.50;93198.69;2075258;69;20225;-76
2021/12/30 07:33:06;;;;;;;4.10;2.22;;;;;;;7.88;81.07;93188.41;2075475;69;20604;-76
2021/12/30 07:35:34;;;;;;;3.60;3.00;;;;;;;7.77;81.80;93203.66;2075253;69;20144;-73
2021/12/30 07:38:01;;;;;;;4.35;2.13;;;;;;;7.77;82.78;93212.06;2075367;69;20590;-75
2021/12/30 07:40:27;;;;;;;5.47;2.72;;;;;;;7.64;82.74;93221.56;2075234;69;20140;-72
2021/12/30 07:42:53;;;;;;;5.97;3.80;;;;;;;7.64;81.82;93223.63;2075420;69;20265;-71
2021/12/30 07:45:18;;;;;;;10.25;4.65;;;;;;;7.42;82.52;93231.00;2075235;69;20155;-71
2021/12/30 07:47:45;;;;;;;11.32;5.13;;;;;;;7.78;81.42;93241.59;2075083;69;20147;-71
2021/12/30 07:50:11;;;;;;;8.43;5.45;;;;;;;7.88;81.37;93247.28;2074729;69;20223;-75
2021/12/30 07:52:38;;;;;;;6.80;4.35;;;;;;;7.81;81.45;93250.91;2075389;69;20148;-72
2021/12/30 07:55:06;;;;;;;5.78;4.25;;;;;;;7.88;81.05;93258.47;2075259;69;20136;-73
2021/12/30 07:57:32;;;;;;;7.18;4.45;;;;;;;7.89;80.53;93262.75;2075324;69;20213;-75
2021/12/30 07:59:57;;;;;;;9.80;5.60;;;;;;;7.66;81.41;93271.47;2075359;69;20176;-72
2021/12/30 08:02:23;;;;;;;6.55;4.57;;;;;;;7.55;81.75;93274.75;2075196;69;20162;-72
2021/12/30 08:04:49;;;;;;;6.93;4.63;;;;;;;7.84;81.16;93281.31;2075202;69;20595;-74
2021/12/30 08:07:19;;;;;;;6.68;4.35;;;;;;;7.99;79.96;93280.38;2075235;69;20187;-73
2021/12/30 08:09:45;;;;;;;11.68;6.43;;;;;;;7.63;81.26;93278.22;2075322;69;20580;-73
2021/12/30 08:12:11;;;;;;;12.00;6.22;;;;;;;7.97;80.58;93285.06;2075308;69;20171;-75
2021/12/30 08:14:36;;;;;;;11.75;5.78;;;;;;;7.83;81.32;93287.50;2075354;69;20144;-75
2021/12/30 08:17:02;;;;;;;15.15;8.80;;;;;;;7.82;80.92;93292.34;2075058;69;20721;-74
2021/12/30 08:19:28;;;;;;;17.90;13.20;;;;;;;7.82;81.08;93294.44;2075103;69;20235;-76
2021/12/30 08:21:53;;;;;;;18.90;13.35;;;;;;;8.00;80.54;93297.94;2075207;69;20148;-76
2021/12/30 08:24:21;;;;;;;16.92;12.45;;;;;;;8.02;80.50;93303.72;2075204;69;20148;-78
2021/12/30 08:26:47;;;;;;;17.20;9.48;;;;;;;7.95;80.09;93302.50;2075318;69;20163;-73
2021/12/30 08:29:12;;;;;;;10.60;7.38;;;;;;;8.02;80.01;93303.72;2075134;69;20221;-73
2021/12/30 08:31:38;;;;;;;10.38;6.78;;;;;;;8.11;79.71;93300.25;2075152;69;20147;-71
2021/12/30 08:34:04;;;;;;;12.35;7.13;;;;;;;8.12;80.19;93296.13;2075200;69;20274;-78
2021/12/30 08:36:31;;;;;;;13.63;7.95;;;;;;;8.20;79.68;93298.81;2075038;69;20154;-75
2021/12/30 08:38:58;;;;;;;10.80;7.25;;;;;;;8.02;79.91;93298.88;2075260;69;20136;-76
2021/12/30 08:41:24;;;;;;;16.25;8.35;;;;;;;8.04;80.72;93303.88;2075170;69;20152;-76
2021/12/30 08:43:50;;;;;;;23.05;8.52;;;;;;;8.18;80.36;93309.88;2075138;69;20167;-75
2021/12/30 08:46:15;;;;;;;26.52;13.98;;;;;;;8.11;79.45;93309.41;2075123;69;20128;-75
2021/12/30 08:48:42;;;;;;;21.27;12.05;;;;;;;8.33;79.09;93313.19;2075152;69;20210;-77
2021/12/30 08:51:08;;;;;;;18.38;10.73;;;;;;;8.48;78.82;93309.50;2069116;69;20197;-77
2021/12/30 08:53:40;;;;;;;18.75;10.70;;;;;;;8.44;78.76;93305.63;2075199;69;20136;-72
2021/12/30 08:56:11;;;;;;;17.55;8.90;;;;;;;8.28;79.63;93316.28;2075213;69;20219;-71
2021/12/30 08:58:39;;;;;;;17.38;8.80;;;;;;;8.43;79.17;93329.38;2075427;69;20261;-72
2021/12/30 09:01:05;;;;;;;19.73;9.30;;;;;;;8.37;77.81;93333.19;2075098;69;20249;-73
2021/12/30 09:03:31;;;;;;;14.30;8.07;;;;;;;8.34;79.26;93325.94;2074940;69;20270;-71
2021/12/30 09:05:56;;;;;;;17.20;9.48;;;;;;;8.43;79.31;93332.94;2075014;69;20144;-71
2021/12/30 09:08:22;;;;;;;12.07;6.55;;;;;;;8.32;78.52;93334.16;2071645;69;20495;-72
2021/12/30 09:10:49;;;;;;;11.15;6.18;;;;;;;8.26;79.94;93324.53;2075070;69;20151;-73
2021/12/30 09:13:18;;;;;;;13.73;7.45;;;;;;;8.40;78.78;93331.28;2075080;69;20226;-72
2021/12/30 09:15:45;;;;;;;19.35;9.50;;;;;;;8.29;78.90;93320.56;2075058;69;20236;-73
2021/12/30 09:18:11;;;;;;;16.83;9.70;;;;;;;8.32;78.67;93325.00;2075121;69;20617;-73
2021/12/30 09:20:39;;;;;;;24.33;11.85;;;;;;;8.31;79.96;93323.53;2075091;69;20146;-72
2021/12/30 09:23:05;;;;;;;12.63;8.57;;;;;;;8.38;79.75;93322.72;2074955;69;20143;-72
2021/12/30 09:25:31;;;;;;;17.25;9.38;;;;;;;8.54;79.98;93318.38;2075139;69;20183;-72
2021/12/30 09:27:57;;;;;;;15.27;9.63;;;;;;;8.71;78.80;93314.03;2075058;69;20144;-74
2021/12/30 09:30:25;;;;;;;14.63;8.57;;;;;;;8.61;79.62;93314.72;2074943;69;20171;-75
2021/12/30 09:32:53;;;;;;;16.40;8.80;;;;;;;8.68;79.17;93318.72;2075097;69;20626;-72
2021/12/30 09:35:19;;;;;;;12.20;8.10;;;;;;;8.76;77.75;93324.97;2074924;69;20147;-72
2021/12/30 09:37:45;;;;;;;13.13;9.23;;;;;;;8.57;79.50;93324.91;2075014;69;20178;-73
2021/12/30 09:40:14;;;;;;;17.23;11.38;;;;;;;8.81;79.20;93335.19;2075013;69;20618;-70
2021/12/30 09:42:43;;;;;;;19.52;11.90;;;;;;;8.93;78.51;93323.41;2075037;69;20148;-71
2021/12/30 09:45:11;;;;;;;16.65;10.68;;;;;;;9.02;78.72;93323.44;2075090;69;20144;-74
2021/12/30 09:47:43;;;;;;;25.08;14.13;;;;;;;8.06;81.38;93318.81;2074985;69;20148;-71
2021/12/30 09:50:09;;;;;;;21.02;13.43;;;;;;;8.59;80.47;93325.03;2074908;69;20224;-72
2021/12/30 09:52:35;;;;;;;23.23;13.65;;;;;;;8.85;79.45;93332.72;2075013;69;20143;-72
2021/12/30 09:55:00;;;;;;;25.70;14.82;;;;;;;9.05;79.29;93327.16;2074955;69;20164;-73
2021/12/30 09:57:26;;;;;;;20.38;13.48;;;;;;;9.17;77.70;93328.09;2074977;69;20551;-75
2021/12/30 09:59:51;;;;;;;23.88;12.82;;;;;;;9.08;77.95;93334.41;2071637;69;20147;-73
2021/12/30 10:02:18;;;;;;;15.48;10.85;;;;;;;9.03;78.09;93332.63;2074952;69;20124;-71
2021/12/30 10:04:44;;;;;;;15.07;9.07;;;;;;;9.06;77.32;93334.97;2074767;69;20148;-72
2021/12/30 10:07:21;;;;;;;15.68;9.95;;;;;;;9.15;78.29;93327.91;2075093;69;20483;-72
2021/12/30 10:09:53;;;;;;;20.10;11.02;;;;;;;9.28;76.90;93323.97;2071508;69;20589;-74
2021/12/30 10:12:39;;;;;;;14.65;10.07;;;;;;;9.37;76.30;93320.44;2074909;69;20139;-74
2021/12/30 10:15:06;;;;;;;20.98;10.68;;;;;;;9.05;78.04;93321.53;2074881;69;20144;-75
2021/12/30 10:17:32;;;;;;;19.20;10.73;;;;;;;9.34;77.81;93318.78;2074915;69;20140;-75
2021/12/30 10:20:24;;;;;;;16.30;10.77;;;;;;;9.45;77.42;93320.31;2074783;69;20140;-73
2021/12/30 10:22:50;;;;;;;14.65;10.02;;;;;;;9.56;76.41;93312.03;2075007;69;20144;-73
2021/12/30 10:25:34;;;;;;;17.92;11.70;;;;;;;9.67;77.20;93319.16;2074985;69;20198;-76
2021/12/30 10:28:26;;;;;;;18.98;12.20;;;;;;;9.59;76.79;93318.56;2075000;69;20140;-74
2021/12/30 10:30:56;;;;;;;21.25;12.88;;;;;;;9.65;76.07;93324.63;2074905;69;20261;-72
2021/12/30 10:33:24;;;;;;;21.42;13.70;;;;;;;9.57;76.83;93305.06;2074864;69;20155;-72
2021/12/30 10:35:52;;;;;;;21.80;13.95;;;;;;;9.32;78.40;93313.03;2071411;69;20145;-71
2021/12/30 10:38:17;;;;;;;18.10;11.07;;;;;;;9.29;77.68;93300.16;2074852;69;20171;-72
2021/12/30 10:40:49;;;;;;;24.02;13.82;;;;;;;9.19;80.56;93296.59;2075044;69;20602;-72
2021/12/30 10:43:33;;;;;;;12.63;8.70;;;;;;;9.34;79.80;93301.94;2075383;69;20210;-72
2021/12/30 10:46:01;;;;;;;14.30;8.57;;;;;;;9.87;77.50;93298.13;2075398;69;20135;-72
2021/12/30 10:48:27;;;;;;;16.67;10.23;;;;;;;9.88;78.14;93296.81;2075400;69;20140;-74
2021/12/30 10:51:09;;;;;;;16.13;9.77;;;;;;;9.88;79.08;93304.50;2075253;69;20167;-78
2021/12/30 10:53:36;;;;;;;12.25;8.35;;;;;;;9.78;78.00;93292.53;2075325;69;20577;-72
2021/12/30 10:56:23;;;;;;;14.82;9.25;;;;;;;9.95;78.53;93295.19;2075329;69;20171;-73
2021/12/30 10:58:49;;;;;;;19.88;10.48;;;;;;;9.95;76.79;93286.00;2075344;69;20144;-75
2021/12/30 11:01:17;;;;;;;17.65;10.77;;;;;;;10.06;77.75;93283.31;2075546;69;20152;-73
2021/12/30 11:03:55;;;;;;;15.38;10.77;;;;;;;10.15;75.94;93274.13;2075313;69;20201;-76
2021/12/30 11:06:20;;;;;;;18.20;11.55;;;;;;;10.33;77.34;93277.53;2075195;69;20147;-73
2021/12/30 11:08:49;;;;;;;17.58;10.32;;;;;;;10.37;75.32;93280.63;2075244;69;20225;-72
2021/12/30 11:11:22;;;;;;;20.92;12.35;;;;;;;9.95;76.77;93269.13;2075298;69;20641;-76
2021/12/30 11:14:07;;;;;;;14.63;10.52;;;;;;;10.38;76.60;93262.41;2075322;69;20502;-73
2021/12/30 11:16:50;;;;;;;15.43;9.80;;;;;;;10.67;75.70;93261.56;2075452;69;20529;-73
2021/12/30 11:19:17;;;;;;;16.30;11.27;;;;;;;10.78;75.17;93246.13;2075156;69;20140;-76
2021/12/30 11:21:44;;;;;;;13.43;7.20;;;;;;;10.65;74.50;93247.34;2075475;69;20156;-75
2021/12/30 11:24:11;;;;;;;14.05;8.25;;;;;;;10.80;75.09;93251.88;2075231;69;20521;-76
2021/12/30 11:26:37;;;;;;;18.17;11.63;;;;;;;10.27;74.93;93253.84;2075115;69;20560;-73
2021/12/30 11:29:05;;;;;;;24.58;10.73;;;;;;;9.61;77.70;93256.84;2075468;69;20156;-72
2021/12/30 11:31:31;;;;;;;13.15;9.05;;;;;;;10.03;76.06;93256.38;2075245;69;20257;-73
2021/12/30 11:33:58;;;;;;;15.18;9.43;;;;;;;10.32;76.02;93255.63;2075274;69;20650;-73
2021/12/30 11:36:24;;;;;;;15.30;9.55;;;;;;;10.51;74.34;93247.09;2075135;69;20587;-75